Time;durP1;ratioP1;P1;durP2;ratioP2;P2;SDS_P1;SDS_P2;PMS_P1;PMS_P2;Temp;Humidity;BMP_temperature;BMP_pressure;BME280_temperature;BME280_humidity;BME280_pressure;Samples;Min_cycle;Max_cycle;Signal;HPM_P1;HPM_P2
2024/01/01 00:00:25;;;;;;;;;;;;;;;21.96;28.05;98039.09;4961668;28;2080;-75
2024/01/01 00:02:51;;;;;;;;;;;;;;;21.64;28.42;98042.78;4979201;28;952;-75
2024/01/01 00:05:17;;;;;;;;;;;;;;;21.53;28.52;98037.41;4994918;28;1030;-75
2024/01/01 00:07:42;;;;;;;;;;;;;;;21.74;28.45;98044.53;4978858;28;1007;-75
2024/01/01 00:10:08;;;;;;;;;;;;;;;21.85;28.24;98042.22;4995056;28;1910;-75
2024/01/01 00:12:34;;;;;;;;;;;;;;;22.04;28.04;98036.88;5020402;28;898;-75
2024/01/01 00:15:00;;;;;;;;;;;;;;;21.89;27.92;98053.47;5035978;28;1793;-75
2024/01/01 00:17:25;;;;;;;;;;;;;;;21.67;28.54;98039.06;5017356;28;932;-75
2024/01/01 00:19:51;;;;;;;;;;;;;;;21.62;28.23;98039.63;5001291;28;1274;-76
2024/01/01 00:22:16;;;;;;;;;;;;;;;21.74;28.39;98035.25;5034341;28;986;-75
2024/01/01 00:24:42;;;;;;;;;;;;;;;21.94;28.20;98029.47;5017703;28;1194;-75
2024/01/01 00:27:08;;;;;;;;;;;;;;;22.21;28.00;98035.59;5017796;28;1019;-75
2024/01/01 00:29:33;;;;;;;;;;;;;;;21.92;28.05;98040.47;5017504;28;1902;-75
2024/01/01 00:31:59;;;;;;;;;;;;;;;21.54;28.33;98049.53;5016971;28;1543;-75
2024/01/01 00:34:24;;;;;;;;;;;;;;;21.60;28.67;98036.41;5034285;28;964;-75
2024/01/01 00:36:50;;;;;;;;;;;;;;;21.85;28.28;98036.56;5033819;28;960;-75
2024/01/01 00:39:16;;;;;;;;;;;;;;;21.98;28.19;98038.66;5017657;28;1258;-75
2024/01/01 00:41:43;;;;;;;;;;;;;;;21.85;28.37;98030.88;5033994;28;1099;-75
2024/01/01 00:44:09;;;;;;;;;;;;;;;21.89;28.03;98024.34;5001171;28;1567;-75
2024/01/01 00:46:35;;;;;;;;;;;;;;;21.68;28.28;98020.84;5033476;28;1251;-75
2024/01/01 00:49:00;;;;;;;;;;;;;;;21.85;27.97;98022.38;5017069;28;1907;-75
2024/01/01 00:51:26;;;;;;;;;;;;;;;21.78;28.13;98025.41;5001169;28;1158;-75
2024/01/01 00:53:52;;;;;;;;;;;;;;;22.13;27.97;98017.22;5017149;28;896;-75
2024/01/01 00:56:17;;;;;;;;;;;;;;;22.08;27.88;98020.56;5018525;28;947;-75
2024/01/01 00:58:43;;;;;;;;;;;;;;;22.20;27.63;98013.38;5018544;28;925;-75
2024/01/01 01:01:08;;;;;;;;;;;;;;;21.87;28.02;98015.50;5014678;28;1851;-75
2024/01/01 01:03:35;;;;;;;;;;;;;;;21.66;28.21;98005.53;5015214;28;1235;-75
2024/01/01 01:06:01;;;;;;;;;;;;;;;21.82;28.31;98005.50;5031215;28;1009;-75
2024/01/01 01:08:27;;;;;;;;;;;;;;;21.97;28.07;98011.59;5015173;28;1903;-75
2024/01/01 01:10:52;;;;;;;;;;;;;;;22.19;27.59;98003.28;4997777;28;1193;-75
2024/01/01 01:13:18;;;;;;;;;;;;;;;22.30;27.37;98007.41;5015050;28;1064;-75
2024/01/01 01:15:44;;;;;;;;;;;;;;;21.74;28.46;98001.28;5046057;28;1933;-75
2024/01/01 01:18:09;;;;;;;;;;;;;;;21.79;27.84;97998.69;5034689;28;1095;-75
2024/01/01 01:20:35;;;;;;;;;;;;;;;21.78;28.10;97991.44;5035801;28;975;-75
2024/01/01 01:23:00;;;;;;;;;;;;;;;21.71;28.46;97996.47;5018619;28;910;-75
2024/01/01 01:25:26;;;;;;;;;;;;;;;21.82;28.49;97986.47;5034847;28;890;-75
2024/01/01 01:27:51;;;;;;;;;;;;;;;21.88;28.31;97986.72;5035893;28;977;-75
2024/01/01 01:30:18;;;;;;;;;;;;;;;22.11;27.65;97980.00;5039115;28;1914;-75
2024/01/01 01:32:43;;;;;;;;;;;;;;;21.98;27.82;97976.34;5039240;28;1785;-75
2024/01/01 01:35:10;;;;;;;;;;;;;;;21.84;27.65;97983.97;5038424;28;1285;-75
2024/01/01 01:37:35;;;;;;;;;;;;;;;21.57;28.71;97975.03;5039767;28;887;-75
2024/01/01 01:40:01;;;;;;;;;;;;;;;22.11;27.99;97968.69;5039622;28;898;-75
2024/01/01 01:42:27;;;;;;;;;;;;;;;22.03;27.97;97967.28;5036279;28;1835;-75
2024/01/01 01:44:52;;;;;;;;;;;;;;;22.06;27.86;97972.03;5004335;28;1327;-76
2024/01/01 01:47:18;;;;;;;;;;;;;;;21.92;28.26;97963.97;5036874;28;1176;-75
2024/01/01 01:49:43;;;;;;;;;;;;;;;21.67;28.51;97967.50;5019287;28;1906;-75
2024/01/01 01:52:12;;;;;;;;;;;;;;;21.67;28.25;97962.63;5016581;28;2011;-75
2024/01/01 01:54:37;;;;;;;;;;;;;;;22.04;27.82;97958.31;5017172;28;1269;-75
2024/01/01 01:57:03;;;;;;;;;;;;;;;22.03;28.24;97955.94;5036448;28;1596;-75
2024/01/01 01:59:29;;;;;;;;;;;;;;;22.10;28.13;97945.22;5020368;28;1143;-75
2024/01/01 02:01:55;;;;;;;;;;;;;;;21.95;28.13;97954.56;5004167;28;1166;-75
2024/01/01 02:04:21;;;;;;;;;;;;;;;21.90;28.19;97952.28;5003779;28;1447;-75
2024/01/01 02:06:47;;;;;;;;;;;;;;;21.72;28.09;97944.28;5036762;28;1083;-75
2024/01/01 02:09:12;;;;;;;;;;;;;;;21.62;28.46;97936.88;5016439;28;1969;-75
2024/01/01 02:11:38;;;;;;;;;;;;;;;21.97;28.06;97946.41;5015960;28;1928;-75
2024/01/01 02:14:07;;;;;;;;;;;;;;;21.97;28.12;97935.09;4984310;28;1243;-75
2024/01/01 02:16:32;;;;;;;;;;;;;;;21.93;27.98;97934.38;4996846;28;1070;-75
2024/01/01 02:18:58;;;;;;;;;;;;;;;21.79;28.34;97930.72;4964962;28;988;-75
2024/01/01 02:21:24;;;;;;;;;;;;;;;21.87;28.30;97925.66;4980907;28;1294;-75
2024/01/01 02:23:49;;;;;;;;;;;;;;;21.92;28.26;97915.81;4996894;28;1663;-75
2024/01/01 02:26:15;;;;;;;;;;;;;;;21.77;28.32;97927.53;4980589;28;1094;-75
2024/01/01 02:28:41;;;;;;;;;;;;;;;21.58;28.99;97931.31;4997143;28;1906;-75
2024/01/01 02:31:07;;;;;;;;;;;;;;;22.06;28.30;97932.38;4980749;28;1249;-75
2024/01/01 02:33:32;;;;;;;;;;;;;;;22.12;27.81;97936.25;4980648;28;1495;-75
2024/01/01 02:35:58;;;;;;;;;;;;;;;22.07;28.03;97931.13;4996780;28;876;-75
2024/01/01 02:38:23;;;;;;;;;;;;;;;22.06;28.00;97938.03;4979394;28;1834;-75
2024/01/01 02:40:49;;;;;;;;;;;;;;;21.62;28.42;97920.69;4995660;28;996;-75
2024/01/01 02:43:15;;;;;;;;;;;;;;;21.77;28.34;97921.88;4980270;28;1008;-75
2024/01/01 02:45:40;;;;;;;;;;;;;;;21.73;28.81;97918.34;4982442;28;973;-75
2024/01/01 02:48:06;;;;;;;;;;;;;;;21.98;28.32;97925.34;5043524;28;1103;-75
2024/01/01 02:50:33;;;;;;;;;;;;;;;22.16;27.96;97919.16;5023883;28;1902;-75
2024/01/01 02:52:59;;;;;;;;;;;;;;;22.00;28.22;97917.16;5039559;28;1856;-75
2024/01/01 02:55:25;;;;;;;;;;;;;;;21.94;27.90;97913.31;5023966;28;1147;-75
2024/01/01 02:57:50;;;;;;;;;;;;;;;21.72;28.35;97913.94;5057318;28;1931;-75
2024/01/01 03:00:16;;;;;;;;;;;;;;;21.51;28.90;97904.00;5023600;28;1248;-75
2024/01/01 03:02:41;;;;;;;;;;;;;;;21.87;28.49;97913.53;5035526;28;1139;-75
2024/01/01 03:05:07;;;;;;;;;;;;;;;22.08;28.21;97907.22;5015794;28;1159;-75
2024/01/01 03:07:33;;;;;;;;;;;;;;;21.91;28.32;97902.88;4999605;28;1153;-75
2024/01/01 03:09:59;;;;;;;;;;;;;;;22.22;28.08;97900.34;4999515;28;1907;-75
2024/01/01 03:12:24;;;;;;;;;;;;;;;21.84;28.46;97903.88;5015196;28;1667;-75
2024/01/01 03:14:50;;;;;;;;;;;;;;;21.95;27.96;97897.91;4999252;28;1248;-75
2024/01/01 03:17:15;;;;;;;;;;;;;;;21.79;28.58;97896.72;5015610;28;1331;-75
2024/01/01 03:19:41;;;;;;;;;;;;;;;21.93;28.27;97892.69;5015677;28;1159;-75
2024/01/01 03:22:07;;;;;;;;;;;;;;;21.92;28.52;97891.09;4999133;28;1118;-75
2024/01/01 03:24:32;;;;;;;;;;;;;;;21.98;28.56;97891.34;4999397;28;1027;-75
2024/01/01 03:26:58;;;;;;;;;;;;;;;21.85;28.50;97894.91;4998877;28;1818;-75
2024/01/01 03:29:23;;;;;;;;;;;;;;;21.78;28.27;97888.69;5031953;28;1902;-75
2024/01/01 03:31:49;;;;;;;;;;;;;;;21.54;29.00;97886.09;5015058;28;1008;-75
2024/01/01 03:34:14;;;;;;;;;;;;;;;21.94;28.39;97876.47;5000842;28;910;-76
2024/01/01 03:36:40;;;;;;;;;;;;;;;22.02;28.36;97875.00;5010426;28;1087;-75
2024/01/01 03:39:06;;;;;;;;;;;;;;;22.08;28.39;97876.06;5015337;28;996;-75
2024/01/01 03:41:32;;;;;;;;;;;;;;;21.93;28.04;97872.06;5015306;28;1896;-75
2024/01/01 03:43:58;;;;;;;;;;;;;;;21.74;28.48;97863.28;5014929;28;1011;-75
2024/01/01 03:46:24;;;;;;;;;;;;;;;21.63;29.10;97865.66;5018307;28;1268;-75
2024/01/01 03:48:50;;;;;;;;;;;;;;;21.83;28.68;97862.63;5034939;28;1898;-75
2024/01/01 03:51:15;;;;;;;;;;;;;;;21.88;28.71;97858.47;5014301;28;2008;-75
2024/01/01 03:53:41;;;;;;;;;;;;;;;22.11;28.22;97855.34;5037360;28;2197;-75
2024/01/01 03:56:07;;;;;;;;;;;;;;;21.68;28.56;97856.59;5054787;28;1000;-75
2024/01/01 03:58:32;;;;;;;;;;;;;;;21.68;28.78;97867.13;5021693;28;1076;-75
2024/01/01 04:00:58;;;;;;;;;;;;;;;21.75;28.37;97862.03;5053605;28;1666;-76
2024/01/01 04:03:24;;;;;;;;;;;;;;;21.73;28.59;97858.88;5033247;28;1603;-75
2024/01/01 04:05:49;;;;;;;;;;;;;;;21.99;28.32;97864.59;5017840;28;1122;-75
2024/01/01 04:08:15;;;;;;;;;;;;;;;22.18;28.05;97852.28;5053156;28;1962;-75
2024/01/01 04:10:40;;;;;;;;;;;;;;;22.03;28.22;97853.94;5035898;28;1976;-76
2024/01/01 04:13:06;;;;;;;;;;;;;;;22.04;28.24;97855.53;5034377;28;921;-75
2024/01/01 04:15:31;;;;;;;;;;;;;;;21.89;27.97;97851.53;5034278;28;1124;-75
2024/01/01 04:17:57;;;;;;;;;;;;;;;21.56;28.87;97860.19;5050983;28;949;-75
2024/01/01 04:20:23;;;;;;;;;;;;;;;21.61;29.01;97851.16;5056542;28;880;-75
2024/01/01 04:22:51;;;;;;;;;;;;;;;21.82;28.85;97849.72;5019614;28;1704;-75
2024/01/01 04:25:17;;;;;;;;;;;;;;;22.16;28.20;97851.94;5038270;28;1954;-75
2024/01/01 04:27:43;;;;;;;;;;;;;;;21.92;28.43;97847.81;5038537;28;1174;-75
2024/01/01 04:30:10;;;;;;;;;;;;;;;21.72;28.39;97848.81;5038628;28;1978;-75
2024/01/01 04:32:35;;;;;;;;;;;;;;;21.70;28.62;97856.94;5037529;28;1019;-75
2024/01/01 04:35:03;;;;;;;;;;;;;;;22.08;28.26;97850.56;5038427;28;880;-75
2024/01/01 04:37:29;;;;;;;;;;;;;;;22.05;28.22;97862.78;5022094;28;1230;-75
2024/01/01 04:39:54;;;;;;;;;;;;;;;22.03;28.41;97859.63;5038015;28;1879;-75
2024/01/01 04:42:20;;;;;;;;;;;;;;;21.91;28.16;97851.88;5021697;28;983;-75
2024/01/01 04:44:45;;;;;;;;;;;;;;;21.78;28.37;97855.50;5038103;28;967;-75
2024/01/01 04:47:11;;;;;;;;;;;;;;;21.83;28.30;97857.75;5037733;28;1357;-75
2024/01/01 04:49:36;;;;;;;;;;;;;;;21.92;28.56;97853.50;5056060;28;1902;-75
2024/01/01 04:52:02;;;;;;;;;;;;;;;21.97;28.57;97855.75;5033849;28;1115;-75
2024/01/01 04:54:28;;;;;;;;;;;;;;;22.01;28.37;97850.75;5000657;28;953;-75
2024/01/01 04:56:53;;;;;;;;;;;;;;;21.82;28.44;97839.19;4993312;28;1757;-75
2024/01/01 04:59:19;;;;;;;;;;;;;;;21.78;28.24;97844.16;4978235;28;1030;-75
2024/01/01 05:01:45;;;;;;;;;;;;;;;21.67;28.79;97843.69;4994534;28;972;-75
2024/01/01 05:04:10;;;;;;;;;;;;;;;21.98;28.46;97834.69;4974449;28;1123;-75
2024/01/01 05:06:36;;;;;;;;;;;;;;;22.19;28.10;97851.03;4987534;28;1218;-77
2024/01/01 05:09:01;;;;;;;;;;;;;;;22.03;28.00;97849.06;4949067;29;1918;-77
2024/01/01 05:11:29;;;;;;;;;;;;;;;22.06;28.30;97838.88;4934116;29;1311;-77
2024/01/01 05:13:54;;;;;;;;;;;;;;;21.59;28.63;97836.63;4948424;29;1136;-77
2024/01/01 05:16:20;;;;;;;;;;;;;;;21.78;28.25;97835.66;4951211;29;1278;-77
2024/01/01 05:18:46;;;;;;;;;;;;;;;21.56;28.65;97831.88;4935177;29;1275;-77
2024/01/01 05:21:11;;;;;;;;;;;;;;;21.68;28.61;97827.50;4936894;29;1344;-77
2024/01/01 05:23:37;;;;;;;;;;;;;;;21.77;28.51;97836.13;4935698;29;1227;-77
2024/01/01 05:26:03;;;;;;;;;;;;;;;21.89;28.51;97831.72;4967240;28;1255;-77
2024/01/01 05:28:29;;;;;;;;;;;;;;;22.11;27.96;97838.34;4950612;29;1911;-77
2024/01/01 05:30:55;;;;;;;;;;;;;;;21.77;28.59;97825.59;4953658;29;1337;-77
2024/01/01 05:33:20;;;;;;;;;;;;;;;21.76;28.45;97820.34;4958879;28;1251;-77
2024/01/01 05:35:46;;;;;;;;;;;;;;;21.40;29.01;97814.94;4990035;28;1378;-76
2024/01/01 05:38:11;;;;;;;;;;;;;;;21.67;28.61;97826.69;5006565;28;1311;-77
2024/01/01 05:40:38;;;;;;;;;;;;;;;21.94;28.49;97834.00;5041305;28;1423;-77
2024/01/01 05:43:04;;;;;;;;;;;;;;;22.09;28.04;97818.94;5041220;28;1197;-77
2024/01/01 05:45:30;;;;;;;;;;;;;;;21.96;28.12;97825.81;5016731;28;1221;-76
2024/01/01 05:47:55;;;;;;;;;;;;;;;22.08;27.80;97825.06;5037770;28;1307;-77
2024/01/01 05:50:21;;;;;;;;;;;;;;;21.81;28.12;97829.13;5038766;28;1906;-77
2024/01/01 05:52:47;;;;;;;;;;;;;;;21.69;28.74;97827.03;5047104;28;1300;-77
2024/01/01 05:55:13;;;;;;;;;;;;;;;22.06;27.89;97824.69;5045515;28;1273;-76
2024/01/01 05:57:38;;;;;;;;;;;;;;;22.25;27.90;97826.56;5048524;28;1257;-77
2024/01/01 06:00:04;;;;;;;;;;;;;;;21.78;28.36;97827.16;5046057;28;1343;-77
2024/01/01 06:02:30;;;;;;;;;;;;;;;21.70;28.37;97825.78;5049960;28;1285;-77
2024/01/01 06:04:55;;;;;;;;;;;;;;;21.70;28.31;97830.66;5047567;28;1412;-77
2024/01/01 06:07:21;;;;;;;;;;;;;;;21.74;28.76;97832.13;5045928;28;1304;-77
2024/01/01 06:09:47;;;;;;;;;;;;;;;21.87;28.37;97835.00;5045842;28;1981;-77
2024/01/01 06:12:13;;;;;;;;;;;;;;;21.77;28.45;97836.91;5046830;28;1348;-77
2024/01/01 06:14:38;;;;;;;;;;;;;;;21.79;28.36;97834.41;5027683;28;1293;-76
2024/01/01 06:17:04;;;;;;;;;;;;;;;21.64;28.58;97826.78;5029172;28;1360;-77
2024/01/01 06:19:29;;;;;;;;;;;;;;;21.72;28.93;97828.97;5029835;28;1357;-76
2024/01/01 06:21:55;;;;;;;;;;;;;;;21.79;28.70;97823.09;5027341;28;1170;-77
2024/01/01 06:24:21;;;;;;;;;;;;;;;22.03;28.42;97831.28;4998366;28;1534;-77
2024/01/01 06:26:46;;;;;;;;;;;;;;;22.17;28.18;97830.06;5011041;28;1316;-77
2024/01/01 06:29:12;;;;;;;;;;;;;;;21.92;28.42;97828.78;5019509;28;1914;-77
2024/01/01 06:31:37;;;;;;;;;;;;;;;21.55;28.58;97827.44;5019486;28;1281;-77
2024/01/01 06:34:03;;;;;;;;;;;;;;;21.64;28.80;97821.91;5019217;28;1376;-77
2024/01/01 06:36:29;;;;;;;;;;;;;;;22.04;28.48;97830.03;5019180;28;1389;-77
2024/01/01 06:38:54;;;;;;;;;;;;;;;21.96;28.39;97820.16;5035918;28;1229;-77
2024/01/01 06:41:20;;;;;;;;;;;;;;;22.22;28.15;97821.78;5035757;28;1194;-77
2024/01/01 06:43:45;;;;;;;;;;;;;;;22.11;28.05;97812.84;5019307;28;1308;-76
2024/01/01 06:46:11;;;;;;;;;;;;;;;21.86;28.42;97822.06;5035729;28;1292;-77
2024/01/01 06:48:37;;;;;;;;;;;;;;;21.75;28.59;97816.72;5018576;28;1906;-77
2024/01/01 06:51:07;;;;;;;;;;;;;;;21.78;28.72;97824.34;5035428;28;1347;-77
2024/01/01 06:53:33;;;;;;;;;;;;;;;21.98;28.40;97812.00;5013336;28;1286;-77
2024/01/01 06:56:00;;;;;;;;;;;;;;;21.94;28.55;97814.94;5036721;28;1745;-77
2024/01/01 06:58:25;;;;;;;;;;;;;;;21.72;28.62;97803.50;5036624;28;1257;-77
2024/01/01 07:00:51;;;;;;;;;;;;;;;21.71;28.57;97812.41;5011687;28;1277;-76
2024/01/01 07:03:16;;;;;;;;;;;;;;;21.78;28.79;97821.50;5044790;28;1302;-77
2024/01/01 07:05:42;;;;;;;;;;;;;;;21.88;28.47;97818.81;5036000;28;1205;-77
2024/01/01 07:08:08;;;;;;;;;;;;;;;22.01;28.58;97811.09;5044849;28;1225;-77
2024/01/01 07:10:33;;;;;;;;;;;;;;;21.96;28.39;97808.81;5037364;28;1983;-77
2024/01/01 07:12:59;;;;;;;;;;;;;;;22.04;28.33;97811.00;5044818;28;1216;-77
2024/01/01 07:15:25;;;;;;;;;;;;;;;21.70;28.62;97811.63;5019407;28;1284;-77
2024/01/01 07:17:50;;;;;;;;;;;;;;;21.95;28.38;97804.41;5036319;28;1213;-77
2024/01/01 07:20:16;;;;;;;;;;;;;;;21.85;28.75;97809.94;5037700;28;1261;-77
2024/01/01 07:22:42;;;;;;;;;;;;;;;21.91;28.73;97809.38;5037467;28;1210;-76
2024/01/01 07:25:09;;;;;;;;;;;;;;;22.01;28.77;97817.56;5036528;28;983;-77
2024/01/01 07:27:34;;;;;;;;;;;;;;;21.72;28.84;97811.97;5036825;28;865;-77
2024/01/01 07:30:03;;;;;;;;;;;;;;;21.91;28.40;97806.56;5036111;28;1902;-77
2024/01/01 07:32:29;;;;;;;;;;;;;;;21.85;28.57;97812.78;5036286;28;901;-76
2024/01/01 07:34:55;;;;;;;;;;;;;;;21.99;28.63;97810.75;5037265;28;921;-76
2024/01/01 07:37:20;;;;;;;;;;;;;;;21.94;28.75;97805.66;5035147;28;988;-76
2024/01/01 07:39:46;;;;;;;;;;;;;;;22.25;28.27;97809.56;5035068;28;922;-77
2024/01/01 07:42:12;;;;;;;;;;;;;;;21.61;29.08;97814.34;5035219;28;987;-76
2024/01/01 07:44:37;;;;;;;;;;;;;;;21.57;29.14;97816.47;5034941;28;1054;-76
2024/01/01 07:47:03;;;;;;;;;;;;;;;21.55;28.80;97807.63;5034701;28;1188;-76
2024/01/01 07:49:28;;;;;;;;;;;;;;;21.64;29.34;97810.59;5034875;28;1967;-76
2024/01/01 07:51:54;;;;;;;;;;;;;;;21.97;28.67;97816.09;5034738;28;1015;-76
2024/01/01 07:54:20;;;;;;;;;;;;;;;22.01;28.78;97813.94;5034806;28;1058;-77
2024/01/01 07:56:47;;;;;;;;;;;;;;;22.02;28.58;97813.50;5034634;28;1118;-76
2024/01/01 07:59:13;;;;;;;;;;;;;;;21.70;28.78;97802.34;5034951;28;976;-76
2024/01/01 08:01:39;;;;;;;;;;;;;;;21.54;28.95;97806.03;5034775;28;962;-76
2024/01/01 08:04:05;;;;;;;;;;;;;;;21.76;28.65;97801.34;5034611;28;946;-76
2024/01/01 08:06:30;;;;;;;;;;;;;;;22.03;28.38;97814.28;5034705;28;1024;-76
2024/01/01 08:08:56;;;;;;;;;;;;;;;22.04;28.32;97801.69;5034550;28;1969;-76
2024/01/01 08:11:21;;;;;;;;;;;;;;;21.94;28.52;97805.66;5034359;28;934;-76
2024/01/01 08:13:47;;;;;;;;;;;;;;;21.93;28.73;97804.09;5018155;28;968;-76
2024/01/01 08:16:14;;;;;;;;;;;;;;;21.85;28.48;97803.50;5034328;28;926;-76
2024/01/01 08:18:40;;;;;;;;;;;;;;;21.90;28.57;97799.31;5034214;28;1076;-77
2024/01/01 08:21:06;;;;;;;;;;;;;;;21.99;28.29;97807.94;5034603;28;911;-76
2024/01/01 08:23:32;;;;;;;;;;;;;;;21.85;28.99;97804.28;5033972;28;1058;-76
2024/01/01 08:25:57;;;;;;;;;;;;;;;22.22;28.18;97804.78;5034315;28;1004;-77
2024/01/01 08:28:23;;;;;;;;;;;;;;;22.08;28.67;97799.56;5034255;28;1071;-76
2024/01/01 08:30:48;;;;;;;;;;;;;;;21.95;28.77;97801.56;5034352;28;1914;-76
2024/01/01 08:33:14;;;;;;;;;;;;;;;21.76;28.76;97809.03;5034782;28;1070;-76
2024/01/01 08:35:40;;;;;;;;;;;;;;;21.69;28.91;97795.88;5029978;28;1000;-77
2024/01/01 08:38:05;;;;;;;;;;;;;;;21.63;28.84;97794.84;5034198;28;1009;-77
2024/01/01 08:40:31;;;;;;;;;;;;;;;21.74;29.29;97797.38;5035551;28;1012;-76
2024/01/01 08:42:57;;;;;;;;;;;;;;;21.98;28.85;97803.53;5036545;28;956;-76
2024/01/01 08:45:22;;;;;;;;;;;;;;;22.00;28.50;97792.50;5036468;28;1038;-77
2024/01/01 08:47:48;;;;;;;;;;;;;;;21.99;28.74;97785.28;5044481;28;1017;-76
2024/01/01 08:50:14;;;;;;;;;;;;;;;21.41;29.02;97785.41;5055872;28;1964;-76
2024/01/01 08:52:39;;;;;;;;;;;;;;;21.78;28.87;97776.19;5038531;28;1012;-76
2024/01/01 08:55:05;;;;;;;;;;;;;;;21.96;28.72;97767.13;5056263;28;892;-77
2024/01/01 08:57:31;;;;;;;;;;;;;;;22.11;28.49;97761.81;5056020;28;961;-76
2024/01/01 08:59:56;;;;;;;;;;;;;;;22.10;28.50;97760.22;5038329;28;912;-77
2024/01/01 09:02:22;;;;;;;;;;;;;;;21.92;28.43;97762.84;5055884;28;886;-76
2024/01/01 09:04:47;;;;;;;;;;;;;;;21.69;28.77;97759.06;5055812;28;939;-76
2024/01/01 09:07:13;;;;;;;;;;;;;;;21.82;28.86;97748.56;5038161;28;907;-76
2024/01/01 09:09:38;;;;;;;;;;;;;;;22.08;28.54;97748.56;5021574;28;1906;-76
2024/01/01 09:12:04;;;;;;;;;;;;;;;22.14;28.33;97746.75;5038354;28;917;-77
2024/01/01 09:14:30;;;;;;;;;;;;;;;21.85;28.87;97747.63;5037949;28;914;-76
2024/01/01 09:16:55;;;;;;;;;;;;;;;21.93;28.46;97733.25;5038035;28;1124;-77
2024/01/01 09:19:21;;;;;;;;;;;;;;;21.84;28.77;97734.72;5056048;28;908;-77
2024/01/01 09:21:46;;;;;;;;;;;;;;;21.83;28.99;97733.16;5055515;28;884;-76
2024/01/01 09:24:12;;;;;;;;;;;;;;;21.85;28.78;97719.31;5055723;28;892;-76
2024/01/01 09:26:39;;;;;;;;;;;;;;;21.93;28.85;97716.28;5055594;28;876;-76
2024/01/01 09:29:04;;;;;;;;;;;;;;;22.21;28.41;97717.38;5037953;28;1894;-76
2024/01/01 09:31:31;;;;;;;;;;;;;;;21.81;28.93;97701.66;5021602;28;1449;-76
2024/01/01 09:34:00;;;;;;;;;;;;;;;21.81;28.57;97700.84;5037991;28;1262;-76
2024/01/01 09:36:29;;;;;;;;;;;;;;;21.45;28.98;97704.81;5038276;28;919;-76
2024/01/01 09:38:55;;;;;;;;;;;;;;;22.01;28.72;97697.78;5038240;28;941;-76
2024/01/01 09:41:23;;;;;;;;;;;;;;;21.95;28.74;97697.56;5037923;28;970;-76
2024/01/01 09:43:48;;;;;;;;;;;;;;;22.03;28.41;97689.63;5037643;28;949;-77
2024/01/01 09:46:17;;;;;;;;;;;;;;;21.90;28.46;97691.66;5055817;28;1049;-76
2024/01/01 09:48:42;;;;;;;;;;;;;;;21.91;28.19;97691.22;5016597;28;1976;-74
2024/01/01 09:51:08;;;;;;;;;;;;;;;21.67;28.58;97687.94;5020288;28;1250;-74
2024/01/01 09:53:33;;;;;;;;;;;;;;;21.93;28.79;97685.09;5037013;28;893;-74
2024/01/01 09:55:59;;;;;;;;;;;;;;;22.01;28.76;97681.56;5020602;28;1225;-74
2024/01/01 09:58:25;;;;;;;;;;;;;;;22.14;28.46;97689.28;5037220;28;982;-74
2024/01/01 10:00:50;;;;;;;;;;;;;;;22.07;28.19;97685.44;5004186;28;1375;-73
2024/01/01 10:03:16;;;;;;;;;;;;;;;21.96;28.50;97684.19;5037000;28;910;-74
2024/01/01 10:05:41;;;;;;;;;;;;;;;21.71;28.94;97668.00;5036920;28;980;-74
2024/01/01 10:08:14;;;;;;;;;;;;;;;21.75;28.96;97672.31;5020393;28;1048;-73
2024/01/01 10:10:40;;;;;;;;;;;;;;;21.92;28.65;97663.69;5036459;28;1987;-74
2024/01/01 10:13:08;;;;;;;;;;;;;;;21.69;29.32;97665.63;5036641;28;1015;-73
2024/01/01 10:15:35;;;;;;;;;;;;;;;22.14;28.44;97656.09;5020225;28;1031;-74
2024/01/01 10:18:07;;;;;;;;;;;;;;;21.79;29.05;97647.50;5003694;28;1167;-74
2024/01/01 10:20:32;;;;;;;;;;;;;;;21.92;28.72;97638.22;5020937;28;900;-73
2024/01/01 10:22:58;;;;;;;;;;;;;;;22.03;28.25;97635.78;5038803;28;1088;-74
2024/01/01 10:25:23;;;;;;;;;;;;;;;21.77;29.09;97632.22;5037897;28;1239;-74
2024/01/01 10:27:49;;;;;;;;;;;;;;;21.87;29.08;97642.41;5038181;28;916;-74
2024/01/01 10:30:15;;;;;;;;;;;;;;;22.10;28.42;97632.72;5037358;28;1902;-73
2024/01/01 10:32:40;;;;;;;;;;;;;;;22.02;28.61;97625.69;5038669;28;944;-73
2024/01/01 10:35:06;;;;;;;;;;;;;;;21.81;28.65;97633.69;5037013;28;1072;-74
2024/01/01 10:37:32;;;;;;;;;;;;;;;21.79;28.42;97624.84;5036185;28;1102;-74
2024/01/01 10:40:04;;;;;;;;;;;;;;;21.83;28.72;97625.53;5019773;28;1353;-74
2024/01/01 10:42:33;;;;;;;;;;;;;;;22.01;28.69;97613.56;5019945;28;1439;-74
2024/01/01 10:44:59;;;;;;;;;;;;;;;22.01;28.48;97610.75;5036005;28;1082;-74
2024/01/01 10:47:25;;;;;;;;;;;;;;;21.89;28.47;97605.91;5019221;28;1102;-74
2024/01/01 10:49:53;;;;;;;;;;;;;;;21.83;28.73;97608.53;5018658;28;1981;-74
2024/01/01 10:52:30;;;;;;;;;;;;;;;21.61;29.06;97599.16;5034913;28;931;-73
2024/01/01 10:55:14;;;;;;;;;;;;;;;21.82;29.00;97595.63;5035034;28;1046;-74
2024/01/01 10:57:53;;;;;;;;;;;;;;;22.04;28.71;97594.88;5034622;28;959;-74
2024/01/01 11:00:34;;;;;;;;;;;;;;;22.01;28.77;97595.78;5034029;28;1041;-74
2024/01/01 11:03:00;;;;;;;;;;;;;;;21.98;28.40;97591.06;5017759;28;967;-74
2024/01/01 11:05:33;;;;;;;;;;;;;;;21.43;28.80;97556.50;5034768;28;1227;-73
2024/01/01 11:07:59;;;;;;;;;;;;;;;21.85;28.76;97585.41;5034233;28;974;-74
2024/01/01 11:10:40;;;;;;;;;;;;;;;21.99;28.67;97586.97;5034477;28;1981;-74
2024/01/01 11:13:09;;;;;;;;;;;;;;;22.26;28.50;97590.06;5018061;28;1341;-74
2024/01/01 11:15:37;;;;;;;;;;;;;;;21.99;28.74;97584.13;4998296;28;1193;-74
2024/01/01 11:18:12;;;;;;;;;;;;;;;21.90;28.94;97584.81;5014672;28;1107;-73
2024/01/01 11:20:48;;;;;;;;;;;;;;;21.65;28.75;97580.00;5014511;28;1008;-74
2024/01/01 11:23:38;;;;;;;;;;;;;;;22.00;28.64;97571.53;5014353;28;964;-73
2024/01/01 11:26:22;;;;;;;;;;;;;;;22.19;28.52;97570.50;4994874;28;991;-74
2024/01/01 11:28:51;;;;;;;;;;;;;;;21.77;29.13;97565.03;4978712;28;1903;-74
2024/01/01 11:31:17;;;;;;;;;;;;;;;21.54;29.09;97562.59;4976410;28;1215;-74
2024/01/01 11:33:42;;;;;;;;;;;;;;;21.67;29.10;97560.53;4976325;28;1665;-75
2024/01/01 11:36:11;;;;;;;;;;;;;;;21.69;29.25;97558.03;4977867;28;1317;-75
2024/01/01 11:38:37;;;;;;;;;;;;;;;22.14;28.57;97553.28;4980177;28;1250;-75
2024/01/01 11:41:02;;;;;;;;;;;;;;;22.22;28.44;97544.06;4975218;28;1309;-75
2024/01/01 11:43:28;;;;;;;;;;;;;;;21.90;28.61;97547.22;4958792;28;1349;-75
2024/01/01 11:45:54;;;;;;;;;;;;;;;21.90;28.75;97547.22;4948670;28;1266;-75
2024/01/01 11:48:20;;;;;;;;;;;;;;;21.83;29.09;97551.88;4941769;28;1790149;-75
2024/01/01 11:50:48;;;;;;;;;;;;;;;22.04;28.98;97550.34;4989250;28;1985;-75
2024/01/01 11:53:17;;;;;;;;;;;;;;;21.96;28.88;97536.88;4972240;28;1314;-75
2024/01/01 11:55:43;;;;;;;;;;;;;;;21.96;28.55;97536.88;5019922;28;1229;-75
2024/01/01 11:58:09;;;;;;;;;;;;;;;21.42;29.19;97537.94;4950017;28;1306;-75
2024/01/01 12:00:37;;;;;;;;;;;;;;;21.92;28.79;97530.56;4933117;28;1306;-75
2024/01/01 12:03:06;;;;;;;;;;;;;;;21.92;29.06;97536.22;4970203;28;1485;-75
2024/01/01 12:05:32;;;;;;;;;;;;;;;22.20;28.52;97540.09;5006214;28;1551;-75
2024/01/01 12:07:58;;;;;;;;;;;;;;;22.09;28.58;97532.75;4998340;28;924;-75
2024/01/01 12:10:25;;;;;;;;;;;;;;;21.96;28.67;97531.22;5014511;28;1890;-75
2024/01/01 12:12:58;;;;;;;;;;;;;;;21.68;28.84;97533.78;4997688;28;1003;-75
2024/01/01 12:15:23;;;;;;;;;;;;;;;21.98;28.85;97534.41;5014408;28;996;-75
2024/01/01 12:17:50;;;;;;;;;;;;;;;21.96;29.05;97542.53;5014485;28;1436;-75
2024/01/01 12:20:16;;;;;;;;;;;;;;;22.07;28.82;97542.94;4997698;28;923;-75
2024/01/01 12:22:42;;;;;;;;;;;;;;;22.10;28.73;97544.88;4997869;28;1147;-75
2024/01/01 12:25:13;;;;;;;;;;;;;;;22.06;28.68;97530.03;5014057;28;937;-75
2024/01/01 12:27:39;;;;;;;;;;;;;;;21.90;28.62;97538.72;5013878;28;1241;-75
2024/01/01 12:30:05;;;;;;;;;;;;;;;22.00;28.60;97534.72;5033934;28;1989;-75
2024/01/01 12:32:30;;;;;;;;;;;;;;;21.74;29.02;97531.97;5053399;28;980;-75
2024/01/01 12:34:56;;;;;;;;;;;;;;;22.07;28.44;97534.44;5053697;28;991;-75
2024/01/01 12:37:22;;;;;;;;;;;;;;;22.05;28.64;97526.41;5053578;28;1008;-75
2024/01/01 12:39:50;;;;;;;;;;;;;;;21.80;28.73;97530.13;5004348;28;1088;-75
2024/01/01 12:42:15;;;;;;;;;;;;;;;21.46;29.44;97521.63;5036743;28;1101;-75
2024/01/01 12:44:41;;;;;;;;;;;;;;;21.75;28.95;97519.38;5037315;28;1052;-76
2024/01/01 12:47:06;;;;;;;;;;;;;;;21.95;28.62;97526.81;5056343;28;1282;-75
2024/01/01 12:49:34;;;;;;;;;;;;;;;22.02;28.51;97523.69;5062499;28;1967;-75
2024/01/01 12:52:00;;;;;;;;;;;;;;;22.05;28.74;97534.13;5047327;28;1300;-75
2024/01/01 12:54:25;;;;;;;;;;;;;;;22.05;28.80;97534.13;5064219;28;1240;-75